Time;durP1;ratioP1;P1;durP2;ratioP2;P2;SDS_P1;SDS_P2;PMS_P1;PMS_P2;Temp;Humidity;BMP_temperature;BMP_pressure;BME280_temperature;BME280_humidity;BME280_pressure;Samples;Min_cycle;Max_cycle;Signal;HPM_P1;HPM_P2
2022/12/31 00:00:57;;;;;;;68.15;31.10;;;;;;;5.62;100.00;101150.63;5066915;28;20394;-67
2022/12/31 00:03:23;;;;;;;64.20;29.48;;;;;;;5.62;100.00;101153.28;5066856;28;20421;-67
2022/12/31 00:05:49;;;;;;;67.30;30.08;;;;;;;5.62;100.00;101158.59;5066509;28;20025;-67
2022/12/31 00:08:14;;;;;;;66.85;31.25;;;;;;;5.59;100.00;101152.56;5067594;28;20025;-67
2022/12/31 00:10:40;;;;;;;65.20;30.30;;;;;;;5.59;100.00;101158.78;5070026;28;20046;-67
2022/12/31 00:13:15;;;;;;;65.03;29.38;;;;;;;5.41;100.00;101129.63;5070512;28;20024;-67
2022/12/31 00:15:42;;;;;;;62.03;29.15;;;;;;;5.60;100.00;101163.13;5070506;28;20417;-67
2022/12/31 00:18:08;;;;;;;64.10;28.15;;;;;;;5.44;100.00;101137.44;5070107;28;20486;-67
2022/12/31 00:20:37;;;;;;;63.95;30.38;;;;;;;5.58;100.00;101157.03;5070364;28;20048;-67
2022/12/31 00:23:02;;;;;;;59.97;28.20;;;;;;;5.59;100.00;101147.25;5070386;28;20033;-67
2022/12/31 00:25:27;;;;;;;57.78;27.27;;;;;;;5.57;100.00;101151.78;5070228;28;20106;-67
2022/12/31 00:27:54;;;;;;;58.28;28.15;;;;;;;5.47;100.00;101132.81;5069405;28;20111;-69
2022/12/31 00:30:20;;;;;;;53.85;26.67;;;;;;;5.55;100.00;101151.88;5070047;28;20474;-68
2022/12/31 00:32:45;;;;;;;59.20;27.33;;;;;;;5.52;100.00;101140.56;5069722;28;20031;-68
2022/12/31 00:35:10;;;;;;;56.67;28.58;;;;;;;5.55;100.00;101149.22;5059147;28;20029;-67
2022/12/31 00:37:36;;;;;;;70.32;30.83;;;;;;;5.58;100.00;101157.03;5049679;28;20036;-68
2022/12/31 00:40:01;;;;;;;57.28;28.65;;;;;;;5.57;100.00;101155.31;5049801;28;20352;-69
2022/12/31 00:42:26;;;;;;;64.28;29.85;;;;;;;5.61;100.00;101159.53;5049967;28;20036;-68
2022/12/31 00:44:52;;;;;;;59.90;27.80;;;;;;;5.58;100.00;101157.03;5049811;28;20039;-69
2022/12/31 00:47:17;;;;;;;55.17;27.40;;;;;;;5.62;100.00;101157.72;5049168;28;20045;-69
2022/12/31 00:49:43;;;;;;;59.33;29.27;;;;;;;5.65;100.00;101170.88;5049086;28;20115;-68
2022/12/31 00:52:08;;;;;;;60.67;28.30;;;;;;;5.51;100.00;101147.66;5049185;28;20024;-68
2022/12/31 00:54:34;;;;;;;56.20;26.88;;;;;;;5.54;100.00;101144.84;5081093;28;20049;-69
2022/12/31 00:56:59;;;;;;;55.35;28.25;;;;;;;5.53;100.00;101140.47;5048856;28;20048;-68
2022/12/31 00:59:25;;;;;;;55.38;27.50;;;;;;;5.61;100.00;101156.03;5052792;28;20033;-69
2022/12/31 01:01:50;;;;;;;54.03;27.77;;;;;;;5.60;100.00;101152.50;5068871;28;20036;-68
2022/12/31 01:04:18;;;;;;;57.10;28.92;;;;;;;5.54;100.00;101151.94;5069437;28;20158;-68
2022/12/31 01:06:44;;;;;;;59.90;28.58;;;;;;;5.63;100.00;101159.44;5069118;28;20135;-68
2022/12/31 01:09:11;;;;;;;58.75;28.90;;;;;;;5.62;100.00;101157.72;5069637;28;20365;-68
2022/12/31 01:11:36;;;;;;;57.58;29.48;;;;;;;5.65;100.00;101152.25;5069167;28;20029;-68
2022/12/31 01:14:13;;;;;;;56.28;28.63;;;;;;;5.67;100.00;101145.91;5069180;28;20090;-68
2022/12/31 01:16:47;;;;;;;59.47;29.75;;;;;;;5.45;100.00;101112.56;5067522;28;20032;-68
2022/12/31 01:19:16;;;;;;;61.08;31.70;;;;;;;5.58;100.00;101137.56;5068992;28;20036;-68
2022/12/31 01:21:43;;;;;;;56.67;28.35;;;;;;;5.68;100.00;101162.72;5067198;28;20035;-68
2022/12/31 01:24:10;;;;;;;59.00;30.05;;;;;;;5.66;100.00;101160.16;5069231;28;20055;-68
2022/12/31 01:26:36;;;;;;;57.97;30.13;;;;;;;5.67;100.00;101161.03;5068326;28;20034;-68
2022/12/31 01:29:03;;;;;;;57.05;30.00;;;;;;;5.68;100.00;101158.25;5068776;28;20024;-68
2022/12/31 01:31:29;;;;;;;55.97;30.48;;;;;;;5.68;100.00;101160.06;5069054;28;20375;-68
2022/12/31 01:33:54;;;;;;;52.63;28.42;;;;;;;5.61;100.00;101146.22;5067061;28;20028;-68
2022/12/31 01:36:25;;;;;;;61.45;30.58;;;;;;;5.64;100.00;101154.03;5068878;28;20027;-68
2022/12/31 01:38:51;;;;;;;57.17;29.80;;;;;;;5.67;100.00;101164.53;5068310;28;20027;-68
2022/12/31 01:41:19;;;;;;;58.22;29.58;;;;;;;5.69;100.00;101162.66;5068645;28;20032;-68
2022/12/31 01:43:57;;;;;;;54.70;30.35;;;;;;;5.73;100.00;101166.84;5068100;28;20052;-68
2022/12/31 01:46:48;;;;;;;59.33;29.08;;;;;;;5.73;100.00;101163.31;5068374;28;20412;-68
2022/12/31 01:49:25;;;;;;;56.78;29.77;;;;;;;5.75;100.00;101158.78;5069185;28;20405;-68
2022/12/31 01:52:31;;;;;;;55.38;29.23;;;;;;;5.68;100.00;101142.28;5068494;28;20070;-68
2022/12/31 01:55:06;;;;;;;55.05;28.40;;;;;;;5.76;100.00;101149.84;5061722;28;20040;-69
2022/12/31 01:57:32;;;;;;;51.78;28.38;;;;;;;5.75;100.00;101146.34;5068479;28;20505;-69
2022/12/31 01:59:59;;;;;;;52.22;27.98;;;;;;;5.76;100.00;101149.84;5068235;28;20032;-69
2022/12/31 02:02:25;;;;;;;53.88;29.85;;;;;;;5.75;100.00;101145.47;5068451;28;20024;-69
2022/12/31 02:04:54;;;;;;;54.28;29.00;;;;;;;5.74;100.00;101144.59;5062036;28;20025;-69
2022/12/31 02:07:19;;;;;;;56.47;29.23;;;;;;;5.76;100.00;101148.06;5068419;28;20037;-68
2022/12/31 02:09:45;;;;;;;59.35;29.98;;;;;;;5.59;100.00;101110.88;5065680;28;20409;-68
2022/12/31 02:12:10;;;;;;;55.75;29.70;;;;;;;5.76;100.00;101140.06;5066745;28;20044;-68
2022/12/31 02:14:47;;;;;;;53.78;30.20;;;;;;;5.72;100.00;101138.53;5067276;28;20032;-68
2022/12/31 02:17:37;;;;;;;53.72;29.20;;;;;;;5.75;100.00;101141.03;5064547;28;20059;-68
2022/12/31 02:20:38;;;;;;;59.15;29.98;;;;;;;5.77;100.00;101140.94;5070883;28;20025;-68
2022/12/31 02:23:22;;;;;;;54.22;29.20;;;;;;;5.75;100.00;101138.38;5064631;28;20037;-68
2022/12/31 02:26:25;;;;;;;58.85;30.52;;;;;;;5.74;100.00;101147.28;5066628;28;20070;-69
2022/12/31 02:29:27;;;;;;;55.28;28.88;;;;;;;5.74;100.00;101147.28;5068495;28;20393;-69
2022/12/31 02:32:27;;;;;;;53.38;28.25;;;;;;;5.78;100.00;101148.84;5065012;28;20024;-68
2022/12/31 02:35:01;;;;;;;54.75;29.08;;;;;;;5.79;100.00;101145.22;5060876;28;20100;-68
2022/12/31 02:37:29;;;;;;;52.67;28.60;;;;;;;5.58;100.00;101114.47;5068270;28;20063;-68
2022/12/31 02:39:55;;;;;;;51.50;26.92;;;;;;;5.82;100.00;101149.56;5084197;28;20035;-68
2022/12/31 02:42:20;;;;;;;56.92;29.85;;;;;;;5.83;100.00;101152.13;5073019;28;20063;-67
2022/12/31 02:44:46;;;;;;;52.45;29.10;;;;;;;5.84;100.00;101150.34;5078354;28;20071;-68
2022/12/31 02:47:32;;;;;;;60.20;30.15;;;;;;;5.75;100.00;101133.03;5080295;28;20376;-67
2022/12/31 02:50:15;;;;;;;51.83;28.83;;;;;;;5.89;100.00;101159.78;5070516;28;20028;-68
2022/12/31 02:52:52;;;;;;;53.07;28.77;;;;;;;5.90;100.00;101155.31;5079196;28;20028;-68
2022/12/31 02:55:30;;;;;;;54.38;29.40;;;;;;;5.89;100.00;101157.13;5081064;28;20028;-68
2022/12/31 02:58:01;;;;;;;55.92;29.38;;;;;;;5.93;100.00;101149.84;5070389;28;20421;-68
2022/12/31 03:03:16;;;;;;;52.03;28.95;;;;;;;5.91;100.00;101152.59;5080548;28;20164;-68
2022/12/31 03:05:43;;;;;;;59.63;30.83;;;;;;;5.95;100.00;101162.09;5084939;28;20473;-68
2022/12/31 03:08:09;;;;;;;55.83;30.23;;;;;;;5.82;100.00;101134.44;5067027;28;20455;-67
2022/12/31 03:10:35;;;;;;;53.17;29.25;;;;;;;5.85;100.00;101142.28;5064601;28;20077;-67
2022/12/31 03:13:01;;;;;;;56.22;30.42;;;;;;;5.94;100.00;101152.38;5064321;28;20062;-69
2022/12/31 03:15:31;;;;;;;54.13;29.20;;;;;;;5.93;100.00;101137.38;5064746;28;20550;-67
2022/12/31 03:18:15;;;;;;;51.50;29.00;;;;;;;5.70;100.00;101097.81;5064152;28;20035;-67
2022/12/31 03:23:42;;;;;;;52.08;28.45;;;;;;;5.96;100.00;101147.84;5064472;28;20070;-67
2022/12/31 03:26:10;;;;;;;55.22;29.80;;;;;;;5.94;100.00;101131.09;5065049;28;20021;-68
2022/12/31 03:28:38;;;;;;;58.60;30.30;;;;;;;5.97;100.00;101146.06;5065918;28;20035;-67
2022/12/31 03:31:04;;;;;;;53.58;29.05;;;;;;;5.94;100.00;101136.41;5066067;28;20029;-69
2022/12/31 03:33:32;;;;;;;57.40;32.05;;;;;;;5.97;100.00;101157.53;5066290;28;20094;-67
2022/12/31 03:35:57;;;;;;;57.67;30.90;;;;;;;5.93;100.00;101152.50;5065498;28;20438;-67
2022/12/31 03:38:23;;;;;;;55.75;30.42;;;;;;;5.93;100.00;101145.34;5065790;28;20020;-68
2022/12/31 03:40:51;;;;;;;58.45;31.30;;;;;;;5.92;100.00;101137.44;5065888;28;20042;-68
2022/12/31 03:43:18;;;;;;;53.08;29.23;;;;;;;5.93;100.00;101144.50;5067796;28;20077;-67
2022/12/31 03:45:51;;;;;;;59.22;31.15;;;;;;;5.86;100.00;101138.66;5069997;28;20453;-67
2022/12/31 03:48:17;;;;;;;59.20;31.20;;;;;;;5.81;100.00;101138.03;5070504;28;20025;-68
2022/12/31 03:50:43;;;;;;;54.88;31.20;;;;;;;5.70;100.00;101121.78;5068667;28;20040;-67
2022/12/31 03:53:09;;;;;;;54.45;30.33;;;;;;;5.85;100.00;101152.91;5070225;28;20025;-68
2022/12/31 03:55:34;;;;;;;59.63;31.33;;;;;;;5.86;100.00;101170.59;5069985;28;20031;-67
2022/12/31 03:58:00;;;;;;;55.35;30.80;;;;;;;5.75;100.00;101149.00;5069990;28;20052;-68
2022/12/31 04:00:25;;;;;;;54.97;29.83;;;;;;;5.81;100.00;101161.13;5070738;28;20459;-67
2022/12/31 04:02:51;;;;;;;53.28;30.40;;;;;;;5.77;100.00;101168.41;5070274;28;20029;-67
2022/12/31 04:05:18;;;;;;;56.85;31.58;;;;;;;5.73;100.00;101155.34;5071191;28;20042;-67
2022/12/31 04:07:44;;;;;;;56.35;31.52;;;;;;;5.78;100.00;101162.16;5070456;28;20439;-67
2022/12/31 04:10:12;;;;;;;58.65;31.17;;;;;;;5.75;100.00;101153.47;5068812;28;20052;-67
2022/12/31 04:12:39;;;;;;;55.25;30.95;;;;;;;5.74;100.00;101149.94;5070547;28;20040;-65
2022/12/31 04:15:06;;;;;;;51.50;30.33;;;;;;;5.73;100.00;101150.00;5070305;28;20055;-67
2022/12/31 04:17:31;;;;;;;56.97;31.92;;;;;;;5.72;100.00;101153.63;5070442;28;20040;-66
2022/12/31 04:19:57;;;;;;;53.95;31.25;;;;;;;5.69;100.00;101146.69;5069981;28;20036;-66
2022/12/31 04:22:22;;;;;;;62.60;33.05;;;;;;;5.72;100.00;101142.97;5070360;28;20104;-66
2022/12/31 04:24:48;;;;;;;59.47;33.83;;;;;;;5.75;100.00;101145.47;5069670;28;20086;-67
2022/12/31 04:27:13;;;;;;;56.28;31.80;;;;;;;5.74;100.00;101144.59;5070342;28;20047;-67
2022/12/31 04:29:39;;;;;;;59.20;33.30;;;;;;;5.71;100.00;101147.44;5070062;28;20038;-67
2022/12/31 04:32:05;;;;;;;54.05;31.13;;;;;;;5.70;100.00;101144.84;5069857;28;20085;-68
2022/12/31 04:34:31;;;;;;;59.15;33.13;;;;;;;5.70;100.00;101148.38;5070444;28;20025;-67
2022/12/31 04:36:57;;;;;;;58.58;31.30;;;;;;;5.68;100.00;101141.44;5069664;28;20028;-67
2022/12/31 04:39:23;;;;;;;57.55;31.38;;;;;;;5.69;100.00;101148.47;5069939;28;20024;-68
2022/12/31 04:41:49;;;;;;;59.88;31.83;;;;;;;5.69;100.00;101154.66;5069787;28;20126;-67
2022/12/31 04:44:15;;;;;;;56.70;33.08;;;;;;;5.67;100.00;101145.91;5070423;28;20171;-67
2022/12/31 04:46:40;;;;;;;55.13;33.33;;;;;;;5.64;100.00;101145.22;5069539;28;20197;-67
2022/12/31 04:49:06;;;;;;;59.38;32.95;;;;;;;5.63;100.00;101149.66;5069819;28;20028;-67
2022/12/31 04:51:31;;;;;;;58.35;32.50;;;;;;;5.63;100.00;101149.66;5069561;28;20041;-67
2022/12/31 04:53:57;;;;;;;56.45;33.97;;;;;;;5.58;100.00;101151.72;5068911;28;20482;-67
2022/12/31 04:56:23;;;;;;;57.30;33.50;;;;;;;5.60;100.00;101163.13;5068871;28;20028;-67
2022/12/31 04:58:49;;;;;;;60.67;32.85;;;;;;;5.42;100.00;101139.34;5069774;28;20028;-67
2022/12/31 05:01:15;;;;;;;60.53;33.13;;;;;;;5.52;100.00;101153.84;5069884;28;20470;-67
2022/12/31 05:03:40;;;;;;;58.78;32.70;;;;;;;5.46;100.00;101154.19;5069465;28;20054;-67
2022/12/31 05:06:19;;;;;;;56.63;32.50;;;;;;;5.45;100.00;101152.47;5069505;28;20028;-67
2022/12/31 05:08:45;;;;;;;59.78;34.40;;;;;;;5.45;100.00;101163.94;5069366;28;20025;-67
2022/12/31 05:11:10;;;;;;;62.10;33.50;;;;;;;5.41;100.00;101165.06;5069567;28;20028;-67
2022/12/31 05:13:36;;;;;;;61.63;33.97;;;;;;;5.39;100.00;101166.09;5069352;28;20070;-67
2022/12/31 05:16:03;;;;;;;60.38;32.78;;;;;;;5.32;100.00;101170.88;5069062;28;20032;-67
2022/12/31 05:18:29;;;;;;;59.72;32.03;;;;;;;5.29;100.00;101181.66;5069151;28;20016;-67
2022/12/31 05:20:55;;;;;;;64.60;36.13;;;;;;;5.17;100.00;101163.72;5068442;28;20082;-67
2022/12/31 05:23:21;;;;;;;60.30;33.25;;;;;;;5.19;100.00;101172.44;5069632;28;20060;-67
2022/12/31 05:25:46;;;;;;;57.13;32.45;;;;;;;5.16;100.00;101174.44;5068835;28;20024;-67
2022/12/31 05:28:13;;;;;;;60.97;33.97;;;;;;;5.13;100.00;101185.22;5069084;28;20107;-67
2022/12/31 05:30:38;;;;;;;57.60;34.03;;;;;;;5.07;100.00;101191.72;5069169;28;20020;-67
2022/12/31 05:33:04;;;;;;;59.58;33.33;;;;;;;4.93;100.00;101183.56;5068949;28;20453;-67
2022/12/31 05:35:30;;;;;;;57.13;32.13;;;;;;;5.01;100.00;101217.75;5069288;28;20024;-67
2022/12/31 05:37:55;;;;;;;58.85;34.38;;;;;;;4.95;100.00;101208.28;5068804;28;20028;-67
2022/12/31 05:40:20;;;;;;;63.00;34.75;;;;;;;4.87;100.00;101205.13;5069219;28;20028;-67
2022/12/31 05:42:46;;;;;;;62.10;34.40;;;;;;;4.80;100.00;101190.44;5068955;28;20458;-67
2022/12/31 05:45:12;;;;;;;55.20;31.35;;;;;;;4.78;100.00;101187.03;5068950;28;20269;-67
2022/12/31 05:47:39;;;;;;;59.72;33.50;;;;;;;4.85;100.00;101222.09;5068703;28;20051;-66
2022/12/31 05:50:09;;;;;;;57.45;31.20;;;;;;;4.71;100.00;101218.34;5068341;28;20103;-67
2022/12/31 05:52:35;;;;;;;57.90;32.20;;;;;;;4.69;100.00;101233.50;5068436;28;20055;-67
2022/12/31 05:55:01;;;;;;;53.97;31.15;;;;;;;4.62;100.00;101224.09;5068124;28;20040;-67
2022/12/31 05:57:26;;;;;;;54.92;30.33;;;;;;;4.55;100.00;101230.66;5068762;28;20033;-67
2022/12/31 05:59:52;;;;;;;55.30;31.38;;;;;;;4.33;100.00;101199.91;5068626;28;20025;-67
2022/12/31 06:02:19;;;;;;;53.88;30.55;;;;;;;4.42;100.00;101234.00;5065578;28;20024;-67
2022/12/31 06:04:44;;;;;;;53.42;30.45;;;;;;;4.30;100.00;101231.91;5067761;28;20064;-67
2022/12/31 06:07:10;;;;;;;54.47;31.65;;;;;;;4.21;100.00;101230.56;5067802;28;20074;-67
2022/12/31 06:09:35;;;;;;;53.25;29.58;;;;;;;4.28;100.00;101253.22;5066613;28;20028;-67
2022/12/31 06:12:01;;;;;;;56.03;32.50;;;;;;;4.27;100.00;101259.47;5065239;28;20098;-67
2022/12/31 06:14:26;;;;;;;56.10;33.13;;;;;;;4.24;100.00;101254.31;5070666;28;20363;-67
2022/12/31 06:16:52;;;;;;;56.75;30.70;;;;;;;4.22;100.00;101253.50;5068436;28;20024;-67
2022/12/31 06:19:17;;;;;;;56.15;31.95;;;;;;;4.20;100.00;101247.41;5068113;28;20027;-67
2022/12/31 06:21:42;;;;;;;63.65;34.28;;;;;;;4.04;100.00;101221.66;5068395;28;20147;-66
2022/12/31 06:24:08;;;;;;;58.28;32.90;;;;;;;3.99;100.00;101228.97;5064801;28;20024;-67
2022/12/31 06:26:34;;;;;;;56.30;33.88;;;;;;;3.94;100.00;101231.81;5064755;28;20028;-66
2022/12/31 06:28:59;;;;;;;56.55;31.98;;;;;;;3.99;100.00;101255.50;5050141;28;20412;-67
2022/12/31 06:31:25;;;;;;;58.35;33.13;;;;;;;4.02;100.00;101264.19;5045863;28;20037;-67
2022/12/31 06:33:50;;;;;;;56.75;31.27;;;;;;;3.96;100.00;101259.16;5045742;28;20021;-67
2022/12/31 06:36:16;;;;;;;55.38;32.10;;;;;;;3.86;100.00;101249.03;5047777;28;20036;-67
2022/12/31 06:38:42;;;;;;;56.85;32.22;;;;;;;3.89;100.00;101259.50;5060882;28;20035;-67
2022/12/31 06:41:11;;;;;;;54.22;31.35;;;;;;;3.86;100.00;101257.00;5067386;28;20052;-67
2022/12/31 06:43:39;;;;;;;62.67;33.40;;;;;;;3.85;100.00;101253.50;5066011;28;20056;-68
2022/12/31 06:46:07;;;;;;;59.72;32.67;;;;;;;3.83;100.00;101257.13;5067072;28;20040;-67
2022/12/31 06:48:33;;;;;;;54.55;32.17;;;;;;;3.85;100.00;101257.94;5067495;28;20425;-68
2022/12/31 06:51:06;;;;;;;60.70;32.40;;;;;;;3.83;100.00;101255.34;5067058;28;20082;-67
2022/12/31 06:53:32;;;;;;;63.25;34.65;;;;;;;3.81;100.00;101264.31;5067512;28;20382;-67
2022/12/31 06:56:03;;;;;;;61.20;32.80;;;;;;;3.80;100.00;101267.88;5066900;28;20032;-67
2022/12/31 06:58:29;;;;;;;61.13;33.63;;;;;;;3.83;100.00;101275.72;5067459;28;20062;-68
2022/12/31 07:01:13;;;;;;;62.15;34.30;;;;;;;3.88;100.00;101284.34;5067267;28;20060;-67
2022/12/31 07:04:01;;;;;;;63.13;34.05;;;;;;;3.89;100.00;101281.63;5067229;28;20081;-67
2022/12/31 07:06:37;;;;;;;62.53;34.80;;;;;;;3.90;100.00;101280.66;5066023;28;20036;-68
2022/12/31 07:09:12;;;;;;;65.40;35.70;;;;;;;3.96;100.00;101306.06;5067264;28;20032;-68
2022/12/31 07:11:43;;;;;;;66.75;38.72;;;;;;;4.01;100.00;101306.72;5067217;28;20032;-67
2022/12/31 07:14:24;;;;;;;79.45;40.50;;;;;;;4.05;100.00;101318.94;5067224;28;20025;-67
2022/12/31 07:17:00;;;;;;;75.43;40.53;;;;;;;3.87;100.00;101299.38;5066689;28;20041;-67
2022/12/31 07:19:43;;;;;;;63.28;35.45;;;;;;;4.07;100.00;101335.66;5066815;28;20029;-67
2022/12/31 07:22:14;;;;;;;63.10;35.67;;;;;;;4.10;100.00;101336.38;5067046;28;20040;-67
2022/12/31 07:24:40;;;;;;;65.50;36.92;;;;;;;4.10;100.00;101336.38;5067064;28;20036;-67
2022/12/31 07:27:20;;;;;;;69.25;39.92;;;;;;;4.12;100.00;101337.16;5066650;28;20458;-67
2022/12/31 07:30:03;;;;;;;72.93;39.13;;;;;;;4.17;100.00;101337.84;5066647;28;20431;-66
2022/12/31 07:33:02;;;;;;;85.68;47.72;;;;;;;4.22;100.00;101343.78;5066983;28;20021;-67
2022/12/31 07:35:33;;;;;;;93.03;47.30;;;;;;;4.29;100.00;101339.06;5067002;28;20029;-67
2022/12/31 07:38:15;;;;;;;92.00;50.17;;;;;;;4.37;100.00;101339.56;5064971;28;20794;-67
2022/12/31 07:41:03;;;;;;;162.90;85.85;;;;;;;4.43;100.00;101350.78;5078371;28;20040;-67
2022/12/31 07:44:07;;;;;;;107.32;59.00;;;;;;;4.51;100.00;101361.03;5059696;28;20090;-67
2022/12/31 07:46:50;;;;;;;76.28;40.50;;;;;;;4.58;100.00;101363.31;5044159;28;20057;-67
2022/12/31 07:49:16;;;;;;;69.30;40.47;;;;;;;4.62;100.00;101372.03;5065260;28;20044;-68
2022/12/31 07:51:42;;;;;;;61.83;35.90;;;;;;;4.70;100.00;101377.84;5067234;28;20055;-68
2022/12/31 07:54:08;;;;;;;60.38;35.25;;;;;;;4.71;100.00;101358.31;5066825;28;20023;-67
2022/12/31 07:56:33;;;;;;;58.85;34.47;;;;;;;4.77;100.00;101371.28;5067137;28;20032;-68
2022/12/31 07:59:12;;;;;;;60.88;37.30;;;;;;;4.83;100.00;101384.28;5065525;28;20043;-68
2022/12/31 08:01:48;;;;;;;56.22;35.28;;;;;;;4.87;100.00;101374.38;5065813;28;20170;-68
2022/12/31 08:04:20;;;;;;;68.22;41.60;;;;;;;5.00;100.00;101388.81;5067051;28;20029;-67
2022/12/31 08:06:52;;;;;;;60.50;38.85;;;;;;;5.06;100.00;101376.06;5065302;28;20044;-67
2022/12/31 08:09:35;;;;;;;64.25;40.80;;;;;;;5.09;100.00;101383.91;5067112;28;20497;-68
2022/12/31 08:12:01;;;;;;;63.97;40.45;;;;;;;5.14;100.00;101371.25;5066415;28;20029;-68
2022/12/31 08:14:28;;;;;;;67.18;40.95;;;;;;;5.23;100.00;101377.94;5067339;28;20032;-68
2022/12/31 08:16:54;;;;;;;66.60;40.97;;;;;;;5.25;100.00;101387.53;5066682;28;20170;-68
2022/12/31 08:19:28;;;;;;;61.65;40.67;;;;;;;5.33;100.00;101392.50;5061134;28;20032;-67
2022/12/31 08:22:12;;;;;;;;;;;;;;;5.39;100.00;101389.53;5065255;28;20127;-68
2022/12/31 08:25:02;;;;;;;64.20;38.80;;;;;;;5.46;100.00;101394.47;5065760;28;20405;-68
2022/12/31 08:27:46;;;;;;;63.10;40.33;;;;;;;5.53;100.00;101403.88;5065934;28;20029;-68
2022/12/31 08:30:18;;;;;;;63.53;39.33;;;;;;;5.57;100.00;101412.53;5067993;28;20108;-67
2022/12/31 08:33:04;;;;;;;66.50;40.45;;;;;;;5.62;100.00;101424.72;5068850;28;20082;-68
2022/12/31 08:36:03;;;;;;;69.15;42.80;;;;;;;5.53;100.00;101397.69;5067899;28;20041;-68
2022/12/31 08:38:45;;;;;;;68.43;44.03;;;;;;;5.67;100.00;101417.34;5069675;28;20029;-68
2022/12/31 08:41:22;;;;;;;67.88;43.05;;;;;;;5.74;100.00;101413.41;5084950;28;20556;-68
2022/12/31 08:44:23;;;;;;;68.65;42.63;;;;;;;5.79;100.00;101416.72;5077325;28;20114;-67
2022/12/31 08:47:03;;;;;;;63.90;41.95;;;;;;;5.87;100.00;101417.22;5088364;28;20371;-67
2022/12/31 08:49:32;;;;;;;68.03;42.63;;;;;;;5.87;100.00;101416.38;5079968;28;20056;-67
2022/12/31 08:51:58;;;;;;;67.70;45.70;;;;;;;5.86;100.00;101401.31;5074165;28;20516;-67
2022/12/31 08:54:24;;;;;;;72.43;45.35;;;;;;;5.97;100.00;101405.16;5069759;28;20041;-67
2022/12/31 08:56:59;;;;;;;76.60;47.65;;;;;;;6.06;100.00;101423.31;5069348;27;20444;-68
2022/12/31 08:59:36;;;;;;;124.63;70.97;;;;;;;6.14;100.00;101421.16;5080798;28;20041;-67
2022/12/31 09:02:23;;;;;;;91.68;55.25;;;;;;;6.24;100.00;101425.03;5081578;28;20452;-67
2022/12/31 09:05:12;;;;;;;84.28;50.63;;;;;;;6.30;100.00;101415.88;5070406;28;20031;-68
2022/12/31 09:07:44;;;;;;;84.85;50.00;;;;;;;6.36;100.00;101420.88;5071195;28;20036;-68
2022/12/31 09:10:37;;;;;;;95.78;57.25;;;;;;;6.45;100.00;101434.56;5073778;28;20016;-68
2022/12/31 09:13:18;;;;;;;106.13;63.78;;;;;;;6.55;100.00;101451.78;5059215;28;20038;-67
2022/12/31 09:15:56;;;;;;;104.85;66.78;;;;;;;6.50;100.00;101421.00;5051911;28;20153;-67
2022/12/31 09:18:23;;;;;;;104.65;64.13;;;;;;;6.76;100.00;101437.31;5080290;28;20520;-68
2022/12/31 09:20:49;;;;;;;92.88;56.53;;;;;;;6.96;100.00;101445.06;5066734;28;20028;-67
2022/12/31 09:23:14;;;;;;;86.55;56.80;;;;;;;7.12;100.00;101420.22;5054446;28;20052;-68
2022/12/31 09:26:08;;;;;;;81.63;51.35;;;;;;;7.29;100.00;101422.78;5069204;28;20020;-68
2022/12/31 09:28:39;;;;;;;71.55;45.47;;;;;;;7.46;100.00;101414.69;5071551;28;20044;-68
2022/12/31 09:31:15;;;;;;;65.55;44.35;;;;;;;7.61;100.00;101425.31;5075889;28;20055;-68
2022/12/31 09:34:00;;;;;;;66.40;45.97;;;;;;;7.54;100.00;101388.41;5077379;28;20768;-67
2022/12/31 09:36:33;;;;;;;73.18;47.92;;;;;;;7.84;100.00;101426.66;5069510;28;20532;-68
2022/12/31 09:39:01;;;;;;;72.57;46.58;;;;;;;7.90;100.00;101423.63;5083467;28;20131;-68
2022/12/31 09:41:53;;;;;;;70.85;46.03;;;;;;;7.94;100.00;101412.69;5074895;28;20114;-68
2022/12/31 09:44:21;;;;;;;67.05;43.45;;;;;;;8.08;100.00;101423.41;5087972;27;20123;-68
2022/12/31 09:47:17;;;;;;;71.07;46.70;;;;;;;8.18;100.00;101421.88;5070970;28;20558;-67
2022/12/31 09:49:58;;;;;;;73.05;46.30;;;;;;;8.26;100.00;101414.28;5076746;28;20107;-67
2022/12/31 09:52:35;;;;;;;71.28;47.55;;;;;;;8.35;100.00;101412.88;5083754;28;20067;-68
2022/12/31 09:55:00;;;;;;;71.13;47.33;;;;;;;8.47;100.00;101404.09;5057317;28;20040;-69
2022/12/31 09:57:39;;;;;;;72.72;48.83;;;;;;;8.60;100.00;101397.91;5077569;28;20054;-71
2022/12/31 10:00:17;;;;;;;72.22;47.88;;;;;;;8.81;100.00;101417.09;5073438;28;20124;-69
2022/12/31 10:02:48;;;;;;;80.10;50.35;;;;;;;8.95;100.00;101414.38;5076248;28;20047;-69
2022/12/31 10:05:22;;;;;;;71.57;48.92;;;;;;;9.14;100.00;101425.63;5080781;28;20040;-69
2022/12/31 10:08:09;;;;;;;75.88;50.97;;;;;;;9.24;100.00;101422.28;5069894;28;20486;-69
2022/12/31 10:10:45;;;;;;;74.18;49.28;;;;;;;9.42;100.00;101424.72;5070450;28;20031;-68
2022/12/31 10:13:32;;;;;;;61.30;41.40;;;;;;;9.58;100.00;101418.25;5081096;28;20050;-69
2022/12/31 10:16:12;;;;;;;61.88;41.00;;;;;;;9.69;100.00;101414.84;5080466;28;20024;-68
2022/12/31 10:18:40;;;;;;;44.38;30.13;;;;;;;9.79;100.00;101416.81;5068927;28;20469;-69
2022/12/31 10:21:27;;;;;;;29.45;19.88;;;;;;;9.87;100.00;101406.41;5073822;28;20044;-69
2022/12/31 10:24:14;;;;;;;26.48;16.98;;;;;;;10.14;100.00;101419.81;5085724;28;20036;-69
2022/12/31 10:26:50;;;;;;;23.10;16.63;;;;;;;10.19;100.00;101402.44;5067223;28;20395;-68
2022/12/31 10:29:18;;;;;;;22.98;16.80;;;;;;;10.24;100.00;101408.34;5073469;28;20043;-66
2022/12/31 10:32:16;;;;;;;24.98;18.13;;;;;;;10.12;100.00;101377.00;5074041;28;20646;-66
2022/12/31 10:34:50;;;;;;;23.50;17.25;;;;;;;10.26;100.00;101389.47;5068929;27;20032;-67
2022/12/31 10:37:18;;;;;;;25.67;16.70;;;;;;;10.35;100.00;101394.22;5066565;28;20075;-67
2022/12/31 10:39:58;;;;;;;22.15;17.38;;;;;;;10.43;100.00;101391.84;5066458;28;20047;-67
2022/12/31 10:42:42;;;;;;;27.33;17.85;;;;;;;10.44;100.00;101397.09;5083717;28;20031;-67
2022/12/31 10:45:16;;;;;;;29.25;18.92;;;;;;;10.49;100.00;101389.59;5057457;27;20783;-66
2022/12/31 10:48:10;;;;;;;24.60;18.25;;;;;;;10.56;100.00;101377.47;5061918;28;20120;-66
2022/12/31 10:51:17;;;;;;;25.88;18.20;;;;;;;10.63;100.00;101372.50;5067580;27;20146;-67
2022/12/31 10:54:16;;;;;;;28.13;18.48;;;;;;;10.70;100.00;101366.59;5069690;28;20386;-67
2022/12/31 10:56:51;;;;;;;25.88;17.17;;;;;;;10.78;100.00;101356.19;5083065;28;20397;-67
2022/12/31 10:59:35;;;;;;;25.55;17.20;;;;;;;10.86;100.00;101369.03;5064112;28;20054;-67
2022/12/31 11:02:28;;;;;;;25.55;16.88;;;;;;;10.94;100.00;101363.97;5055871;28;20053;-68
2022/12/31 11:05:31;;;;;;;23.92;16.45;;;;;;;11.10;100.00;101346.59;5061507;28;20086;-67
2022/12/31 11:08:16;;;;;;;22.20;16.13;;;;;;;11.19;100.00;101345.09;5064287;28;20119;-67
2022/12/31 11:10:57;;;;;;;24.55;16.35;;;;;;;11.29;100.00;101349.66;5051105;28;20045;-67
2022/12/31 11:13:29;;;;;;;22.92;15.40;;;;;;;11.43;100.00;101345.94;5074043;28;20016;-67
2022/12/31 11:16:46;;;;;;;25.35;15.07;;;;;;;11.54;100.00;101338.78;5063377;28;20033;-67
2022/12/31 11:19:24;;;;;;;22.75;15.50;;;;;;;11.62;99.55;101329.31;5056925;28;20487;-67
2022/12/31 11:22:08;;;;;;;22.83;15.73;;;;;;;11.77;98.97;101350.50;5063563;28;20700;-67
2022/12/31 11:24:52;;;;;;;22.88;15.73;;;;;;;11.76;97.78;101347.91;5064049;28;20036;-68
2022/12/31 11:27:17;;;;;;;22.58;15.05;;;;;;;11.78;97.66;101344.16;5072018;27;20040;-71
2022/12/31 11:30:07;;;;;;;19.90;14.95;;;;;;;11.82;97.03;101347.47;5066249;28;20039;-68
2022/12/31 11:32:43;;;;;;;23.90;15.07;;;;;;;11.79;97.57;101336.94;5067084;28;20028;-67
2022/12/31 11:35:24;;;;;;;18.40;14.30;;;;;;;11.90;96.96;101342.38;5066111;28;20614;-67
2022/12/31 11:37:53;;;;;;;20.52;13.52;;;;;;;11.89;96.97;101341.50;5066227;28;20113;-67
2022/12/31 11:40:39;;;;;;;20.77;13.48;;;;;;;11.92;97.36;101343.09;5066848;28;20461;-69